Time;durP1;ratioP1;P1;durP2;ratioP2;P2;SDS_P1;SDS_P2;PMS_P1;PMS_P2;Temp;Humidity;BMP_temperature;BMP_pressure;BME280_temperature;BME280_humidity;BME280_pressure;Samples;Min_cycle;Max_cycle;Signal;HPM_P1;HPM_P2
2022/11/12 00:00:42;;;;;;;;;;;5.60;99.90;;;;;;4946597;29;20450;-77
2022/11/12 00:03:28;;;;;;;;;;;5.60;99.90;;;;;;4944942;29;20511;-78
2022/11/12 00:06:16;;;;;;;;;;;5.70;99.90;;;;;;4944934;29;20541;-78
2022/11/12 00:09:01;;;;;;;;;;;5.70;99.90;;;;;;4945179;29;19933;-78
2022/11/12 00:11:47;;;;;;;;;;;5.70;99.90;;;;;;4945809;29;19933;-78
2022/11/12 00:14:34;;;;;;;;;;;5.70;99.90;;;;;;4945506;29;20385;-78
2022/11/12 00:17:20;;;;;;;;;;;5.60;99.90;;;;;;4946660;29;20046;-78
2022/11/12 00:20:07;;;;;;;;;;;5.60;99.90;;;;;;4942962;29;20020;-76
2022/11/12 00:22:55;;;;;;;;;;;5.60;99.90;;;;;;4940899;28;19930;-79
2022/11/12 00:25:43;;;;;;;;;;;5.60;99.90;;;;;;4942486;29;20168;-76
2022/11/12 00:28:29;;;;;;;;;;;5.50;99.90;;;;;;4943166;29;20310;-78
2022/11/12 00:31:15;;;;;;;;;;;5.40;99.90;;;;;;4943920;29;19933;-77
2022/11/12 00:34:01;;;;;;;;;;;5.30;99.90;;;;;;4944912;29;20046;-77
2022/11/12 00:36:47;;;;;;;;;;;5.30;99.90;;;;;;4944885;29;19934;-78
2022/11/12 00:39:34;;;;;;;;;;;5.30;99.90;;;;;;4943525;29;20025;-80
2022/11/12 00:42:19;;;;;;;;;;;5.40;99.90;;;;;;4944206;29;20330;-77
2022/11/12 00:45:06;;;;;;;;;;;5.40;99.90;;;;;;4942726;29;19929;-78
2022/11/12 00:47:54;;;;;;;;;;;5.40;99.90;;;;;;4943940;29;19930;-77
2022/11/12 00:50:39;;;;;;;;;;;5.40;99.90;;;;;;4941885;29;20112;-78
2022/11/12 00:53:25;;;;;;;;;;;5.40;99.90;;;;;;4942873;29;20437;-78
2022/11/12 00:56:12;;;;;;;;;;;5.50;99.90;;;;;;4944268;29;19934;-80
2022/11/12 00:58:59;;;;;;;;;;;5.50;99.90;;;;;;4943421;29;19933;-79
2022/11/12 01:01:44;;;;;;;;;;;5.50;99.90;;;;;;4945138;29;19933;-80
2022/11/12 01:04:30;;;;;;;;;;;5.60;99.90;;;;;;4943297;29;19929;-79
2022/11/12 01:07:16;;;;;;;;;;;5.60;99.90;;;;;;4943037;29;20089;-79
2022/11/12 01:10:01;;;;;;;;;;;5.50;99.90;;;;;;4943714;29;20307;-77
2022/11/12 01:12:48;;;;;;;;;;;5.50;99.90;;;;;;4941550;29;19952;-79
2022/11/12 01:15:34;;;;;;;;;;;5.50;99.90;;;;;;4943824;29;19950;-79
2022/11/12 01:18:20;;;;;;;;;;;5.60;99.90;;;;;;4943843;29;20030;-78
2022/11/12 01:21:06;;;;;;;;;;;5.60;99.90;;;;;;4942189;28;19928;-76
2022/11/12 01:23:52;;;;;;;;;;;5.60;99.90;;;;;;4944130;29;20013;-77
2022/11/12 01:26:37;;;;;;;;;;;5.50;99.90;;;;;;4943020;29;20020;-80
2022/11/12 01:29:25;;;;;;;;;;;5.50;99.90;;;;;;4944107;29;20035;-78
2022/11/12 01:32:11;;;;;;;;;;;5.50;99.90;;;;;;4941211;28;19933;-79
2022/11/12 01:34:57;;;;;;;;;;;5.60;99.90;;;;;;4943830;29;19942;-79
2022/11/12 01:37:42;;;;;;;;;;;5.60;99.90;;;;;;4943277;29;19930;-78
2022/11/12 01:40:29;;;;;;;;;;;5.50;99.90;;;;;;4944501;29;19929;-80
2022/11/12 01:43:14;;;;;;;;;;;5.50;99.90;;;;;;4941270;29;19933;-78
2022/11/12 01:46:03;;;;;;;;;;;5.50;99.90;;;;;;4943864;29;19986;-78
2022/11/12 01:48:50;;;;;;;;;;;5.50;99.90;;;;;;4942901;29;20282;-78
2022/11/12 01:51:37;;;;;;;;;;;5.60;99.90;;;;;;4941635;29;19949;-80
2022/11/12 01:54:23;;;;;;;;;;;5.60;99.90;;;;;;4942527;29;20278;-77
2022/11/12 01:57:10;;;;;;;;;;;5.60;99.90;;;;;;4942867;29;19929;-77
2022/11/12 01:59:58;;;;;;;;;;;5.70;99.90;;;;;;4943180;28;20329;-79
2022/11/12 02:02:46;;;;;;;;;;;5.70;99.90;;;;;;4942456;29;19950;-77
2022/11/12 02:05:33;;;;;;;;;;;5.80;99.90;;;;;;4942208;29;19933;-79
2022/11/12 02:08:19;;;;;;;;;;;5.80;99.90;;;;;;4946826;29;19930;-78
2022/11/12 02:11:15;;;;;;;;;;;5.80;99.90;;;;;;4942486;29;20616;-80
2022/11/12 02:14:01;;;;;;;;;;;5.80;99.90;;;;;;4941602;29;19934;-78
2022/11/12 02:16:47;;;;;;;;;;;5.80;99.90;;;;;;4941138;29;21466;-78
2022/11/12 02:19:36;;;;;;;;;;;5.70;99.90;;;;;;4941896;29;20061;-78
2022/11/12 02:22:24;;;;;;;;;;;5.80;99.90;;;;;;4941826;29;20075;-77
2022/11/12 02:25:12;;;;;;;;;;;5.90;99.90;;;;;;4942116;29;19928;-79
2022/11/12 02:27:59;;;;;;;;;;;5.90;99.90;;;;;;4940439;29;19933;-78
2022/11/12 02:30:46;;;;;;;;;;;5.90;99.90;;;;;;4942930;29;19969;-78
2022/11/12 02:33:31;;;;;;;;;;;5.90;99.90;;;;;;4942036;29;19929;-78
2022/11/12 02:36:18;;;;;;;;;;;5.90;99.90;;;;;;4942675;29;20024;-78
2022/11/12 02:39:05;;;;;;;;;;;5.90;99.90;;;;;;4942075;29;19945;-79
2022/11/12 02:41:50;;;;;;;;;;;5.90;99.90;;;;;;4945671;29;20004;-79
2022/11/12 02:44:36;;;;;;;;;;;5.90;99.90;;;;;;4943533;29;20404;-77
2022/11/12 02:47:22;;;;;;;;;;;5.90;99.90;;;;;;4943158;29;20334;-79
2022/11/12 02:50:08;;;;;;;;;;;5.80;99.90;;;;;;4942099;28;19929;-78
2022/11/12 02:52:54;;;;;;;;;;;5.80;99.90;;;;;;4945625;29;19929;-77
2022/11/12 02:55:42;;;;;;;;;;;5.80;99.90;;;;;;4949665;29;20381;-79
2022/11/12 02:58:28;;;;;;;;;;;5.90;99.90;;;;;;4964932;29;19946;-78
2022/11/12 03:01:14;;;;;;;;;;;5.90;99.90;;;;;;4956070;28;19929;-78
2022/11/12 03:04:00;;;;;;;;;;;5.80;99.90;;;;;;4956290;29;19937;-77
2022/11/12 03:06:46;;;;;;;;;;;5.90;99.90;;;;;;4946350;29;19974;-79
2022/11/12 03:09:33;;;;;;;;;;;5.90;99.90;;;;;;4943867;29;19952;-79
2022/11/12 03:12:20;;;;;;;;;;;5.80;99.90;;;;;;4939657;29;19929;-78
2022/11/12 03:15:07;;;;;;;;;;;5.80;99.90;;;;;;4942775;29;20043;-78
2022/11/12 03:17:53;;;;;;;;;;;5.90;99.90;;;;;;4942732;29;20017;-79
2022/11/12 03:20:38;;;;;;;;;;;5.80;99.90;;;;;;4942564;28;19934;-77
2022/11/12 03:23:26;;;;;;;;;;;5.90;99.90;;;;;;4941475;29;20021;-80
2022/11/12 03:26:12;;;;;;;;;;;5.90;99.90;;;;;;4942292;29;20002;-79
2022/11/12 03:28:59;;;;;;;;;;;6.00;99.90;;;;;;4943268;29;19970;-78
2022/11/12 03:31:45;;;;;;;;;;;6.00;99.90;;;;;;4941607;29;19929;-78
2022/11/12 03:34:30;;;;;;;;;;;6.00;99.90;;;;;;4942541;29;19933;-79
2022/11/12 03:37:16;;;;;;;;;;;6.10;99.90;;;;;;4942666;29;19930;-79
2022/11/12 03:40:02;;;;;;;;;;;6.10;99.90;;;;;;4942108;28;19934;-78
2022/11/12 03:42:48;;;;;;;;;;;6.10;99.90;;;;;;4940588;29;19933;-79
2022/11/12 03:45:35;;;;;;;;;;;6.20;99.90;;;;;;4942371;29;19930;-79
2022/11/12 03:48:21;;;;;;;;;;;6.10;99.90;;;;;;4941910;29;19933;-79
2022/11/12 03:51:06;;;;;;;;;;;6.00;99.90;;;;;;4952978;29;19929;-79
2022/11/12 03:53:52;;;;;;;;;;;6.10;99.90;;;;;;4951606;29;19978;-78
2022/11/12 03:56:38;;;;;;;;;;;6.10;99.90;;;;;;4941199;29;19954;-79
2022/11/12 03:59:23;;;;;;;;;;;6.10;99.90;;;;;;4941921;29;20393;-79
2022/11/12 04:02:13;;;;;;;;;;;6.10;99.90;;;;;;4941124;29;19929;-78
2022/11/12 04:11:06;;;;;;;;;;;6.20;99.90;;;;;;4941371;28;19933;-79
2022/11/12 04:13:52;;;;;;;;;;;6.20;99.90;;;;;;4942012;29;19982;-79
2022/11/12 04:22:45;;;;;;;;;;;6.20;99.90;;;;;;4941281;29;19985;-79
2022/11/12 04:28:34;;;;;;;;;;;6.20;99.90;;;;;;4942028;29;19980;-78
2022/11/12 04:31:19;;;;;;;;;;;6.20;99.90;;;;;;4941532;29;20046;-79
2022/11/12 04:37:05;;;;;;;;;;;6.20;99.90;;;;;;4942046;29;19972;-78
2022/11/12 04:39:51;;;;;;;;;;;6.20;99.90;;;;;;4941392;29;19929;-79
2022/11/12 04:45:41;;;;;;;;;;;6.10;99.90;;;;;;4944833;29;19929;-76
2022/11/12 04:48:27;;;;;;;;;;;6.20;99.90;;;;;;4945160;29;20402;-77
2022/11/12 04:54:15;;;;;;;;;;;6.30;99.90;;;;;;4945248;29;19929;-77
2022/11/12 04:57:00;;;;;;;;;;;6.30;99.90;;;;;;4944934;29;19929;-78
2022/11/12 04:59:46;;;;;;;;;;;6.30;99.90;;;;;;4944593;29;19937;-78
2022/11/12 05:02:32;;;;;;;;;;;6.40;99.90;;;;;;4944627;29;19946;-78
2022/11/12 05:05:17;;;;;;;;;;;6.40;99.90;;;;;;4945010;29;19973;-78
2022/11/12 05:08:03;;;;;;;;;;;6.40;99.90;;;;;;4945054;29;19933;-79
2022/11/12 05:10:50;;;;;;;;;;;6.40;99.90;;;;;;4946321;29;19989;-80
2022/11/12 05:13:36;;;;;;;;;;;6.40;99.90;;;;;;4945782;29;19936;-77
2022/11/12 05:16:22;;;;;;;;;;;6.40;99.90;;;;;;4947229;29;19977;-78
2022/11/12 05:19:08;;;;;;;;;;;6.40;99.90;;;;;;4944736;29;19933;-79
2022/11/12 05:22:05;;;;;;;;;;;6.40;99.90;;;;;;4944473;29;20374;-77
2022/11/12 05:24:51;;;;;;;;;;;6.40;99.90;;;;;;4943953;29;19981;-78
2022/11/12 05:27:38;;;;;;;;;;;6.40;99.90;;;;;;4944871;29;19981;-78
2022/11/12 05:30:24;;;;;;;;;;;6.50;99.90;;;;;;4944224;29;20501;-80
2022/11/12 05:33:09;;;;;;;;;;;6.50;99.90;;;;;;4943657;29;19929;-79
2022/11/12 05:35:56;;;;;;;;;;;6.60;99.90;;;;;;4945930;29;19929;-78
2022/11/12 05:38:41;;;;;;;;;;;6.60;99.90;;;;;;4943910;29;19928;-78
2022/11/12 05:41:27;;;;;;;;;;;6.60;99.90;;;;;;4942869;29;19929;-77
2022/11/12 05:44:15;;;;;;;;;;;6.50;99.90;;;;;;4944224;29;19929;-77
2022/11/12 05:47:00;;;;;;;;;;;6.50;99.90;;;;;;4944477;29;19929;-79
2022/11/12 05:49:46;;;;;;;;;;;6.50;99.90;;;;;;4943057;28;19977;-78
2022/11/12 05:52:31;;;;;;;;;;;6.50;99.90;;;;;;4943167;29;19929;-77
2022/11/12 05:55:17;;;;;;;;;;;6.50;99.90;;;;;;4944501;29;19933;-78
2022/11/12 05:58:04;;;;;;;;;;;6.50;99.90;;;;;;4943984;29;19933;-78
2022/11/12 06:00:51;;;;;;;;;;;6.50;99.90;;;;;;4943653;29;19934;-78
2022/11/12 06:03:38;;;;;;;;;;;6.50;99.90;;;;;;4943284;29;19933;-80
2022/11/12 06:06:24;;;;;;;;;;;6.50;99.90;;;;;;4943764;29;19946;-78
2022/11/12 06:09:10;;;;;;;;;;;6.60;99.90;;;;;;4939231;29;20005;-78
2022/11/12 06:11:56;;;;;;;;;;;6.60;99.90;;;;;;4943598;29;19944;-78
2022/11/12 06:14:42;;;;;;;;;;;6.70;99.90;;;;;;4943525;29;19937;-78
2022/11/12 06:17:29;;;;;;;;;;;6.80;99.90;;;;;;4943084;29;20084;-78
2022/11/12 06:20:14;;;;;;;;;;;6.90;99.90;;;;;;4941944;29;20293;-78
2022/11/12 06:23:00;;;;;;;;;;;6.90;99.90;;;;;;4943549;29;19929;-78
2022/11/12 06:25:47;;;;;;;;;;;7.00;99.90;;;;;;4943553;29;20285;-77
2022/11/12 06:28:32;;;;;;;;;;;7.00;99.90;;;;;;4943509;28;20460;-78
2022/11/12 06:31:18;;;;;;;;;;;6.90;99.90;;;;;;4950764;29;19930;-79
2022/11/12 06:34:06;;;;;;;;;;;6.90;99.90;;;;;;4954431;29;19930;-80
2022/11/12 06:36:52;;;;;;;;;;;6.80;99.90;;;;;;4948057;29;19933;-78
2022/11/12 06:39:38;;;;;;;;;;;6.80;99.90;;;;;;4942445;29;19930;-79
2022/11/12 06:42:23;;;;;;;;;;;6.70;99.90;;;;;;4942170;29;20024;-80
2022/11/12 06:45:10;;;;;;;;;;;6.70;99.90;;;;;;4943396;29;19930;-78
2022/11/12 06:47:57;;;;;;;;;;;6.80;99.90;;;;;;4942530;29;19974;-79
2022/11/12 06:50:44;;;;;;;;;;;7.00;99.90;;;;;;4942274;29;19934;-77
2022/11/12 06:53:30;;;;;;;;;;;7.20;99.90;;;;;;4941791;29;19929;-77
2022/11/12 06:56:16;;;;;;;;;;;7.20;99.90;;;;;;4942783;29;20657;-78
2022/11/12 06:59:01;;;;;;;;;;;7.30;99.90;;;;;;4940173;28;19969;-78
2022/11/12 07:01:47;;;;;;;;;;;7.40;99.90;;;;;;4939899;28;19982;-77
2022/11/12 07:04:32;;;;;;;;;;;7.40;99.90;;;;;;4939805;29;19933;-78
2022/11/12 07:07:20;;;;;;;;;;;7.50;99.90;;;;;;4942783;29;19930;-78
2022/11/12 07:10:06;;;;;;;;;;;7.60;99.90;;;;;;4943685;29;20398;-80
2022/11/12 07:12:53;;;;;;;;;;;7.70;99.90;;;;;;4940757;29;20017;-79
2022/11/12 07:15:39;;;;;;;;;;;7.80;99.90;;;;;;4940640;29;19933;-79
2022/11/12 07:18:24;;;;;;;;;;;7.90;99.90;;;;;;4941481;28;19929;-79
2022/11/12 07:21:11;;;;;;;;;;;8.00;99.90;;;;;;4937430;29;19930;-77
2022/11/12 07:23:58;;;;;;;;;;;8.20;99.90;;;;;;4942050;29;19993;-78
2022/11/12 07:26:44;;;;;;;;;;;8.30;99.90;;;;;;4941995;29;19929;-79
2022/11/12 07:29:30;;;;;;;;;;;8.50;99.90;;;;;;4943196;28;19930;-80
2022/11/12 07:32:16;;;;;;;;;;;8.70;99.90;;;;;;4941664;29;19994;-80
2022/11/12 07:35:02;;;;;;;;;;;8.80;99.90;;;;;;4947000;29;19932;-80
2022/11/12 07:37:47;;;;;;;;;;;9.10;99.90;;;;;;4961281;29;19937;-75
2022/11/12 07:40:34;;;;;;;;;;;9.40;99.90;;;;;;4963115;29;19929;-78
2022/11/12 07:43:20;;;;;;;;;;;9.60;99.90;;;;;;4946822;29;19937;-78
2022/11/12 07:46:07;;;;;;;;;;;9.70;99.90;;;;;;4942370;29;20059;-78
2022/11/12 07:48:53;;;;;;;;;;;9.70;99.90;;;;;;4941800;29;20244;-79
2022/11/12 07:51:38;;;;;;;;;;;9.80;99.90;;;;;;4942142;29;20106;-77
2022/11/12 07:54:24;;;;;;;;;;;9.80;99.90;;;;;;4942240;29;19965;-76
2022/11/12 07:57:10;;;;;;;;;;;9.70;99.90;;;;;;4941775;29;20377;-79
2022/11/12 07:59:56;;;;;;;;;;;9.80;99.90;;;;;;4939381;29;20008;-77
2022/11/12 08:02:42;;;;;;;;;;;9.80;99.90;;;;;;4940145;29;20271;-78
2022/11/12 08:05:27;;;;;;;;;;;9.80;99.90;;;;;;4941886;29;19929;-76
2022/11/12 08:08:13;;;;;;;;;;;9.80;99.90;;;;;;4940789;28;19932;-77
2022/11/12 08:10:59;;;;;;;;;;;10.00;99.90;;;;;;4941177;29;19929;-77
2022/11/12 08:13:46;;;;;;;;;;;10.20;99.90;;;;;;4943370;29;20429;-79
2022/11/12 08:16:32;;;;;;;;;;;10.40;99.90;;;;;;4945821;29;19979;-78
2022/11/12 08:19:17;;;;;;;;;;;10.30;99.90;;;;;;4943604;29;19930;-79
2022/11/12 08:22:03;;;;;;;;;;;10.40;99.90;;;;;;4944866;29;19934;-77
2022/11/12 08:24:48;;;;;;;;;;;10.40;99.90;;;;;;4944868;29;20289;-77
2022/11/12 08:27:34;;;;;;;;;;;10.50;99.90;;;;;;4946247;29;19930;-78
2022/11/12 08:30:21;;;;;;;;;;;10.80;99.90;;;;;;4945769;29;20401;-77
2022/11/12 08:33:07;;;;;;;;;;;11.10;99.90;;;;;;4945297;29;19929;-77
2022/11/12 08:35:52;;;;;;;;;;;11.40;99.90;;;;;;4944373;29;20065;-77
2022/11/12 08:38:38;;;;;;;;;;;11.70;99.90;;;;;;4944477;29;20065;-78
2022/11/12 08:41:24;;;;;;;;;;;12.00;99.90;;;;;;4941442;29;20289;-78
2022/11/12 08:44:10;;;;;;;;;;;12.20;99.90;;;;;;4944987;29;19929;-78
2022/11/12 08:46:58;;;;;;;;;;;12.30;99.90;;;;;;4943869;29;19973;-78
2022/11/12 08:49:43;;;;;;;;;;;12.10;99.90;;;;;;4944967;29;19971;-77
2022/11/12 08:52:29;;;;;;;;;;;12.00;99.90;;;;;;4945071;29;20026;-78
2022/11/12 08:55:14;;;;;;;;;;;11.90;99.90;;;;;;4943800;29;20289;-77
2022/11/12 08:58:01;;;;;;;;;;;12.00;99.90;;;;;;4944841;29;20014;-80
2022/11/12 09:00:48;;;;;;;;;;;12.10;99.90;;;;;;4954058;29;19930;-77
2022/11/12 09:03:35;;;;;;;;;;;12.10;99.90;;;;;;4948916;29;20050;-77
2022/11/12 09:06:21;;;;;;;;;;;11.90;99.90;;;;;;4945562;29;19929;-76
2022/11/12 09:09:07;;;;;;;;;;;11.80;99.90;;;;;;4945512;28;19929;-76
2022/11/12 09:11:52;;;;;;;;;;;11.70;99.90;;;;;;4942616;29;19934;-77
2022/11/12 09:14:38;;;;;;;;;;;11.70;99.90;;;;;;4944646;29;19945;-78
2022/11/12 09:17:23;;;;;;;;;;;12.00;99.90;;;;;;4944303;29;19933;-77
2022/11/12 09:20:10;;;;;;;;;;;12.20;99.90;;;;;;4945343;29;20152;-76
2022/11/12 09:22:58;;;;;;;;;;;12.30;99.90;;;;;;4944056;29;19929;-78
2022/11/12 09:25:44;;;;;;;;;;;12.60;99.90;;;;;;4944154;29;19930;-78
2022/11/12 09:28:30;;;;;;;;;;;12.70;99.90;;;;;;4944388;29;20501;-77
2022/11/12 09:31:16;;;;;;;;;;;13.10;99.90;;;;;;4944241;29;20334;-77
2022/11/12 09:34:01;;;;;;;;;;;13.50;99.90;;;;;;4944890;29;19933;-77
2022/11/12 09:36:48;;;;;;;;;;;13.70;99.90;;;;;;4944582;29;19929;-78
2022/11/12 09:39:34;;;;;;;;;;;14.00;99.90;;;;;;4942985;29;19930;-79
2022/11/12 09:42:21;;;;;;;;;;;14.10;99.90;;;;;;4943351;29;20007;-77
2022/11/12 09:45:11;;;;;;;;;;;14.20;99.90;;;;;;4944364;29;20437;-78
2022/11/12 09:47:58;;;;;;;;;;;14.10;99.90;;;;;;4943970;28;20013;-77
2022/11/12 09:50:49;;;;;;;;;;;14.10;99.90;;;;;;4944590;29;20298;-78
2022/11/12 09:53:40;;;;;;;;;;;14.10;99.90;;;;;;4942258;29;20712;-77
2022/11/12 09:56:27;;;;;;;;;;;14.20;99.90;;;;;;4942764;29;19949;-76
2022/11/12 09:59:12;;;;;;;;;;;14.20;99.90;;;;;;4944098;29;19929;-77
2022/11/12 10:02:01;;;;;;;;;;;13.90;99.90;;;;;;4942890;29;19932;-78
2022/11/12 10:04:55;;;;;;;;;;;13.80;99.90;;;;;;4943133;29;20021;-76
2022/11/12 10:07:46;;;;;;;;;;;14.00;99.90;;;;;;4943020;29;19930;-78
2022/11/12 10:10:37;;;;;;;;;;;14.20;99.90;;;;;;4945179;29;19949;-76
2022/11/12 10:13:30;;;;;;;;;;;14.20;99.90;;;;;;4942743;29;20298;-76
2022/11/12 10:19:31;;;;;;;;;;;14.10;99.90;;;;;;4942982;28;19933;-78
2022/11/12 10:22:26;;;;;;;;;;;14.10;99.90;;;;;;4941946;29;19929;-78
2022/11/12 10:25:14;;;;;;;;;;;14.20;99.90;;;;;;4944614;29;19929;-80
2022/11/12 10:28:02;;;;;;;;;;;14.30;99.90;;;;;;4943997;29;19937;-79
2022/11/12 10:30:47;;;;;;;;;;;14.20;99.90;;;;;;4944260;29;20208;-80
2022/11/12 10:33:33;;;;;;;;;;;14.30;99.90;;;;;;4943976;29;19930;-78
2022/11/12 10:36:23;;;;;;;;;;;14.20;99.90;;;;;;4944945;28;20070;-77
2022/11/12 10:39:09;;;;;;;;;;;14.10;99.90;;;;;;4941581;29;20328;-78
2022/11/12 10:42:02;;;;;;;;;;;14.10;99.90;;;;;;4942686;29;19945;-79
2022/11/12 10:44:50;;;;;;;;;;;14.10;99.90;;;;;;4943956;29;19934;-76
2022/11/12 10:47:41;;;;;;;;;;;14.20;99.90;;;;;;4942693;29;20081;-75
2022/11/12 10:50:29;;;;;;;;;;;14.10;99.90;;;;;;4942746;29;20450;-78
2022/11/12 10:53:28;;;;;;;;;;;14.20;99.90;;;;;;4942160;29;20003;-76
2022/11/12 10:56:24;;;;;;;;;;;14.30;99.90;;;;;;4941684;29;19934;-76
2022/11/12 10:59:11;;;;;;;;;;;14.30;99.90;;;;;;4941520;29;19933;-78
2022/11/12 11:01:59;;;;;;;;;;;14.20;99.90;;;;;;4941367;29;19929;-78
2022/11/12 11:04:45;;;;;;;;;;;14.30;99.90;;;;;;4942390;29;19933;-77
2022/11/12 11:07:30;;;;;;;;;;;14.40;99.90;;;;;;4943346;28;19929;-78
2022/11/12 11:10:22;;;;;;;;;;;14.30;99.90;;;;;;4944097;29;20453;-78
2022/11/12 11:13:09;;;;;;;;;;;14.20;99.90;;;;;;4942059;29;19933;-77
2022/11/12 11:16:00;;;;;;;;;;;14.00;99.90;;;;;;4942797;29;19929;-77
2022/11/12 11:18:49;;;;;;;;;;;13.80;99.90;;;;;;4943310;28;20020;-77
2022/11/12 11:21:46;;;;;;;;;;;13.70;99.90;;;;;;4942495;29;19929;-78
2022/11/12 11:24:36;;;;;;;;;;;13.70;99.90;;;;;;4942791;29;20017;-77
2022/11/12 11:27:28;;;;;;;;;;;13.90;99.90;;;;;;4941374;29;19969;-78
2022/11/12 11:30:14;;;;;;;;;;;14.30;99.90;;;;;;4943006;29;20457;-76
2022/11/12 11:33:05;;;;;;;;;;;14.70;99.90;;;;;;4941621;29;19934;-78
2022/11/12 11:36:02;;;;;;;;;;;15.10;99.90;;;;;;4941303;29;19939;-77
2022/11/12 11:38:53;;;;;;;;;;;15.40;99.90;;;;;;4942663;29;19936;-78
2022/11/12 11:41:48;;;;;;;;;;;15.50;99.90;;;;;;4941377;29;19973;-77
2022/11/12 11:44:38;;;;;;;;;;;15.50;99.90;;;;;;4941703;29;19930;-77
2022/11/12 11:47:29;;;;;;;;;;;15.50;99.90;;;;;;4940872;28;19929;-77
2022/11/12 11:50:22;;;;;;;;;;;15.50;99.90;;;;;;4944944;29;19934;-76
2022/11/12 11:53:19;;;;;;;;;;;15.50;99.90;;;;;;4945553;29;19929;-78
2022/11/12 11:56:09;;;;;;;;;;;15.50;99.90;;;;;;4945895;29;20063;-77
2022/11/12 11:59:05;;;;;;;;;;;15.40;99.90;;;;;;4946011;28;19929;-78
2022/11/12 12:02:02;;;;;;;;;;;15.20;99.90;;;;;;4946463;29;20289;-79
2022/11/12 12:04:49;;;;;;;;;;;15.30;99.90;;;;;;4946122;29;19972;-78
2022/11/12 12:07:39;;;;;;;;;;;15.50;99.90;;;;;;4945641;28;19949;-77
2022/11/12 12:10:31;;;;;;;;;;;15.80;99.90;;;;;;4944886;29;19977;-76
2022/11/12 12:13:21;;;;;;;;;;;16.20;1.00;;;;;;4944932;29;19934;-77
2022/11/12 12:16:24;;;;;;;;;;;16.20;99.90;;;;;;4944997;29;19934;-77
2022/11/12 12:19:18;;;;;;;;;;;16.50;99.90;;;;;;4946999;28;19932;-77
2022/11/12 12:22:05;;;;;;;;;;;16.50;99.90;;;;;;4947656;29;19929;-78
2022/11/12 12:24:53;;;;;;;;;;;16.20;99.90;;;;;;4950114;29;19972;-76
2022/11/12 12:27:45;;;;;;;;;;;16.10;99.90;;;;;;4956358;28;19945;-78
2022/11/12 12:30:31;;;;;;;;;;;15.90;99.90;;;;;;4965223;29;19990;-79
2022/11/12 12:33:20;;;;;;;;;;;15.80;99.90;;;;;;4957061;29;20342;-78
2022/11/12 12:36:08;;;;;;;;;;;15.70;99.90;;;;;;4947053;29;20028;-79
2022/11/12 12:38:57;;;;;;;;;;;15.60;99.90;;;;;;4944552;28;19982;-78
2022/11/12 12:41:45;;;;;;;;;;;15.30;99.90;;;;;;4943385;29;19998;-78
2022/11/12 12:47:42;;;;;;;;;;;15.00;1.00;;;;;;4944463;29;19933;-76
2022/11/12 12:50:28;;;;;;;;;;;14.70;99.90;;;;;;4943410;29;20021;-77
2022/11/12 12:53:19;;;;;;;;;;;14.50;1.00;;;;;;4944106;29;20399;-78
2022/11/12 12:56:05;;;;;;;;;;;14.30;1.00;;;;;;4945056;29;19929;-77
2022/11/12 12:58:51;;;;;;;;;;;14.10;99.90;;;;;;4944917;28;19934;-78
2022/11/12 13:01:38;;;;;;;;;;;14.00;31.10;;;;;;4943236;29;20443;-77
2022/11/12 13:04:51;;;;;;;;;;;13.90;99.90;;;;;;4944202;29;19933;-78
2022/11/12 13:07:39;;;;;;;;;;;13.80;1.00;;;;;;4914770;29;20457;-78
2022/11/12 13:10:45;;;;;;;;;;;13.80;1.00;;;;;;4945238;29;19934;-78
2022/11/12 13:13:33;;;;;;;;;;;13.80;99.90;;;;;;4942867;29;19937;-78
2022/11/12 13:16:33;;;;;;;;;;;13.70;1.00;;;;;;4944948;29;20016;-76
2022/11/12 13:19:28;;;;;;;;;;;13.70;1.00;;;;;;4944615;28;19930;-79
2022/11/12 13:22:32;;;;;;;;;;;13.80;1.00;;;;;;4943001;29;19930;-77
2022/11/12 13:25:26;;;;;;;;;;;13.90;1.00;;;;;;4944101;29;20317;-78
2022/11/12 13:28:13;;;;;;;;;;;14.10;99.90;;;;;;4944718;29;19949;-77
2022/11/12 13:30:59;;;;;;;;;;;14.30;1.00;;;;;;4945028;29;20354;-76
2022/11/12 13:33:45;;;;;;;;;;;14.40;1.00;;;;;;4944599;29;19934;-77
2022/11/12 13:36:32;;;;;;;;;;;14.50;29.70;;;;;;4942710;29;20117;-79
2022/11/12 13:39:19;;;;;;;;;;;14.60;1.00;;;;;;4943870;29;19929;-78
2022/11/12 13:45:15;;;;;;;;;;;14.90;99.90;;;;;;4943692;29;19975;-78
2022/11/12 13:48:01;;;;;;;;;;;15.00;1.00;;;;;;4944107;29;20013;-77
2022/11/12 13:50:52;;;;;;;;;;;14.90;1.00;;;;;;4945136;29;20278;-78
2022/11/12 13:53:39;;;;;;;;;;;14.70;1.00;;;;;;4944682;29;19958;-78
2022/11/12 13:56:27;;;;;;;;;;;14.70;1.00;;;;;;4944470;29;20007;-78
2022/11/12 13:59:14;;;;;;;;;;;14.70;99.90;;;;;;4943061;29;19929;-77
2022/11/12 14:02:04;;;;;;;;;;;14.50;1.00;;;;;;4943763;29;19978;-77
2022/11/12 14:04:49;;;;;;;;;;;14.40;1.00;;;;;;4943460;29;20002;-77
2022/11/12 14:07:40;;;;;;;;;;;14.20;1.00;;;;;;4944471;28;20400;-78
2022/11/12 14:10:32;;;;;;;;;;;14.10;1.00;;;;;;4942005;29;20294;-79
2022/11/12 14:13:26;;;;;;;;;;;14.10;1.00;;;;;;4942386;28;20016;-78
2022/11/12 14:16:17;;;;;;;;;;;14.00;99.90;;;;;;4944297;29;19929;-77
2022/11/12 14:19:13;;;;;;;;;;;14.00;99.90;;;;;;4944000;29;19978;-77
2022/11/12 14:22:01;;;;;;;;;;;13.90;1.00;;;;;;4943063;29;20297;-77
2022/11/12 14:24:59;;;;;;;;;;;13.80;1.00;;;;;;4942739;29;19933;-78
2022/11/12 14:27:47;;;;;;;;;;;13.70;99.90;;;;;;4941797;28;20278;-77
2022/11/12 14:30:32;;;;;;;;;;;13.70;1.00;;;;;;4943194;29;20341;-78
2022/11/12 14:33:20;;;;;;;;;;;13.60;1.00;;;;;;4942894;29;20287;-77
2022/11/12 14:36:07;;;;;;;;;;;13.60;1.00;;;;;;4942653;29;19929;-77
2022/11/12 14:38:54;;;;;;;;;;;13.50;99.90;;;;;;4942952;28;19946;-79
2022/11/12 14:41:44;;;;;;;;;;;13.40;1.00;;;;;;4941415;29;19949;-80
2022/11/12 14:44:34;;;;;;;;;;;13.30;1.00;;;;;;4943227;29;19929;-78
2022/11/12 14:47:20;;;;;;;;;;;13.20;99.90;;;;;;4943276;29;20394;-78
2022/11/12 14:50:06;;;;;;;;;;;13.10;1.00;;;;;;4942076;29;20000;-78
2022/11/12 14:52:55;;;;;;;;;;;12.90;99.90;;;;;;4943125;29;20072;-77
2022/11/12 14:55:42;;;;;;;;;;;12.90;1.00;;;;;;4944469;29;19933;-76
2022/11/12 14:58:28;;;;;;;;;;;12.80;1.00;;;;;;4942484;28;19986;-77
2022/11/12 15:01:22;;;;;;;;;;;12.70;99.90;;;;;;4943619;29;20386;-78
2022/11/12 15:04:18;;;;;;;;;;;12.60;5.60;;;;;;4941144;29;19949;-79
2022/11/12 15:07:03;;;;;;;;;;;12.50;1.00;;;;;;4942544;29;19929;-78
2022/11/12 15:09:49;;;;;;;;;;;12.40;1.00;;;;;;4943097;29;19930;-78
2022/11/12 15:12:34;;;;;;;;;;;12.40;1.00;;;;;;4941466;29;19934;-77
2022/11/12 15:15:21;;;;;;;;;;;12.30;99.90;;;;;;4942983;29;20306;-77
2022/11/12 15:18:15;;;;;;;;;;;12.20;1.00;;;;;;4941746;28;20216;-76
2022/11/12 15:21:04;;;;;;;;;;;12.20;1.00;;;;;;4939814;29;20344;-77
2022/11/12 15:23:51;;;;;;;;;;;12.10;92.20;;;;;;4943582;29;20381;-76
2022/11/12 15:26:37;;;;;;;;;;;12.00;99.90;;;;;;4957328;29;19930;-80
2022/11/12 15:29:25;;;;;;;;;;;11.90;99.90;;;;;;4948280;29;19930;-80
2022/11/12 15:32:31;;;;;;;;;;;11.80;99.90;;;;;;4941883;29;20039;-75
2022/11/12 15:35:35;;;;;;;;;;;11.60;99.90;;;;;;4941293;29;19929;-79
2022/11/12 15:38:25;;;;;;;;;;;11.50;99.90;;;;;;4941886;29;19930;-78
2022/11/12 15:41:20;;;;;;;;;;;11.40;99.90;;;;;;4943628;29;19934;-77
2022/11/12 15:44:07;;;;;;;;;;;11.40;99.90;;;;;;4942766;29;20314;-76
2022/11/12 15:46:53;;;;;;;;;;;11.30;99.90;;;;;;4942395;29;20033;-79
2022/11/12 15:49:46;;;;;;;;;;;11.20;99.90;;;;;;4940030;29;20498;-78
2022/11/12 15:52:32;;;;;;;;;;;11.20;99.90;;;;;;4941578;29;20054;-77
2022/11/12 15:55:19;;;;;;;;;;;11.20;99.90;;;;;;4942039;29;19978;-76
2022/11/12 15:58:06;;;;;;;;;;;11.10;99.90;;;;;;4941881;28;20025;-77
2022/11/12 16:00:51;;;;;;;;;;;11.10;99.90;;;;;;4940869;29;20000;-78
2022/11/12 16:03:37;;;;;;;;;;;11.00;99.90;;;;;;4942243;29;19934;-76
2022/11/12 16:06:23;;;;;;;;;;;11.10;99.90;;;;;;4941826;29;19929;-76
2022/11/12 16:09:09;;;;;;;;;;;11.00;99.90;;;;;;4942027;29;19944;-76
2022/11/12 16:11:57;;;;;;;;;;;11.10;99.90;;;;;;4941432;29;19951;-78
2022/11/12 16:14:43;;;;;;;;;;;11.00;99.90;;;;;;4941918;29;20016;-77
2022/11/12 16:17:29;;;;;;;;;;;11.00;99.90;;;;;;4941994;29;19929;-76
2022/11/12 16:20:16;;;;;;;;;;;11.00;99.90;;;;;;4940921;29;19933;-76
2022/11/12 16:23:03;;;;;;;;;;;10.90;99.90;;;;;;4940662;29;19929;-77
2022/11/12 16:25:49;;;;;;;;;;;10.80;99.90;;;;;;4942037;29;19933;-78
2022/11/12 16:28:36;;;;;;;;;;;10.70;99.90;;;;;;4942051;28;19954;-78
2022/11/12 16:31:22;;;;;;;;;;;10.60;99.90;;;;;;4941640;29;19930;-77
2022/11/12 16:34:07;;;;;;;;;;;10.50;99.90;;;;;;4942367;29;20298;-77
2022/11/12 16:36:53;;;;;;;;;;;10.40;99.90;;;;;;4947390;28;20028;-77
2022/11/12 16:39:38;;;;;;;;;;;10.30;99.90;;;;;;4945127;29;20075;-77
2022/11/12 16:42:24;;;;;;;;;;;10.40;99.90;;;;;;4944437;29;19929;-84
2022/11/12 16:45:11;;;;;;;;;;;10.40;99.90;;;;;;4946033;29;20003;-77
2022/11/12 16:47:57;;;;;;;;;;;10.40;99.90;;;;;;4945596;28;19934;-77
2022/11/12 16:50:42;;;;;;;;;;;10.40;99.90;;;;;;4944468;29;20291;-75
2022/11/12 16:53:28;;;;;;;;;;;10.40;99.90;;;;;;4944328;29;19948;-76
2022/11/12 16:56:14;;;;;;;;;;;10.40;99.90;;;;;;4944703;29;19929;-76